sensor_id;sensor_type;location;lat;lon;timestamp;P1;durP1;ratioP1;P2;durP2;ratioP2
75285;SDS011;63879;46.064;14.532;2023-04-24T06:00:45;5.75;;;2.13;;
75285;SDS011;63879;46.064;14.532;2023-04-24T06:03:11;3.50;;;1.75;;
75285;SDS011;63879;46.064;14.532;2023-04-24T06:05:37;2.55;;;1.88;;
75285;SDS011;63879;46.064;14.532;2023-04-24T06:08:02;1.88;;;1.15;;
75285;SDS011;63879;46.064;14.532;2023-04-24T06:10:27;2.70;;;1.60;;
75285;SDS011;63879;46.064;14.532;2023-04-24T06:12:53;1.63;;;1.25;;
75285;SDS011;63879;46.064;14.532;2023-04-24T06:17:46;3.03;;;1.87;;
75285;SDS011;63879;46.064;14.532;2023-04-24T06:20:17;3.08;;;2.13;;
75285;SDS011;63879;46.064;14.532;2023-04-24T06:22:43;2.30;;;1.58;;
75285;SDS011;63879;46.064;14.532;2023-04-24T06:25:08;5.22;;;1.77;;
75285;SDS011;63879;46.064;14.532;2023-04-24T06:27:33;5.78;;;2.30;;
75285;SDS011;63879;46.064;14.532;2023-04-24T06:29:59;5.93;;;1.83;;
75285;SDS011;63879;46.064;14.532;2023-04-24T06:32:24;3.85;;;1.52;;
75285;SDS011;63879;46.064;14.532;2023-04-24T06:34:53;3.08;;;1.10;;
75285;SDS011;63879;46.064;14.532;2023-04-24T06:37:18;1.70;;;1.20;;
75285;SDS011;63879;46.064;14.532;2023-04-24T06:39:45;2.20;;;1.50;;
75285;SDS011;63879;46.064;14.532;2023-04-24T06:42:10;5.00;;;2.47;;
75285;SDS011;63879;46.064;14.532;2023-04-24T06:44:36;4.03;;;1.42;;
75285;SDS011;63879;46.064;14.532;2023-04-24T06:47:11;3.88;;;2.13;;
75285;SDS011;63879;46.064;14.532;2023-04-24T06:49:40;3.97;;;1.45;;
75285;SDS011;63879;46.064;14.532;2023-04-24T06:52:05;2.83;;;1.63;;
75285;SDS011;63879;46.064;14.532;2023-04-24T06:54:31;2.42;;;1.30;;
75285;SDS011;63879;46.064;14.532;2023-04-24T06:56:57;3.70;;;2.08;;
75285;SDS011;63879;46.064;14.532;2023-04-24T06:59:23;5.40;;;1.30;;
75285;SDS011;63879;46.064;14.532;2023-04-24T07:01:49;1.80;;;1.45;;
75285;SDS011;63879;46.064;14.532;2023-04-24T07:04:16;2.28;;;1.00;;
75285;SDS011;63879;46.064;14.532;2023-04-24T07:06:41;2.15;;;1.38;;
75285;SDS011;63879;46.064;14.532;2023-04-24T07:09:07;4.00;;;2.15;;
75285;SDS011;63879;46.064;14.532;2023-04-24T07:11:34;3.28;;;1.70;;
75285;SDS011;63879;46.064;14.532;2023-04-24T07:14:00;6.88;;;2.13;;
75285;SDS011;63879;46.064;14.532;2023-04-24T07:16:25;4.28;;;2.40;;
75285;SDS011;63879;46.064;14.532;2023-04-24T07:18:51;2.33;;;1.13;;
75285;SDS011;63879;46.064;14.532;2023-04-24T07:21:17;3.67;;;2.08;;
75285;SDS011;63879;46.064;14.532;2023-04-24T07:23:42;3.00;;;1.30;;
75285;SDS011;63879;46.064;14.532;2023-04-24T07:26:08;3.55;;;1.45;;
75285;SDS011;63879;46.064;14.532;2023-04-24T07:28:33;3.45;;;1.58;;
75285;SDS011;63879;46.064;14.532;2023-04-24T07:30:58;2.40;;;1.63;;
75285;SDS011;63879;46.064;14.532;2023-04-24T07:33:25;1.45;;;1.25;;
75285;SDS011;63879;46.064;14.532;2023-04-24T07:35:50;3.42;;;2.13;;
75285;SDS011;63879;46.064;14.532;2023-04-24T07:38:16;2.80;;;1.48;;
75285;SDS011;63879;46.064;14.532;2023-04-24T07:40:45;3.60;;;2.38;;
75285;SDS011;63879;46.064;14.532;2023-04-24T07:43:10;1.55;;;1.10;;
75285;SDS011;63879;46.064;14.532;2023-04-24T07:45:36;3.97;;;1.10;;
75285;SDS011;63879;46.064;14.532;2023-04-24T07:48:02;3.35;;;1.63;;
75285;SDS011;63879;46.064;14.532;2023-04-24T07:50:28;4.45;;;1.98;;
75285;SDS011;63879;46.064;14.532;2023-04-24T07:52:53;2.47;;;1.67;;
75285;SDS011;63879;46.064;14.532;2023-04-24T07:55:19;1.20;;;0.82;;
75285;SDS011;63879;46.064;14.532;2023-04-24T07:57:44;2.08;;;1.45;;
75285;SDS011;63879;46.064;14.532;2023-04-24T08:00:10;2.08;;;1.35;;
75285;SDS011;63879;46.064;14.532;2023-04-24T08:02:35;3.00;;;1.30;;
75285;SDS011;63879;46.064;14.532;2023-04-24T08:05:01;1.88;;;1.35;;
75285;SDS011;63879;46.064;14.532;2023-04-24T08:07:28;5.28;;;1.98;;
75285;SDS011;63879;46.064;14.532;2023-04-24T08:09:54;4.00;;;1.88;;
75285;SDS011;63879;46.064;14.532;2023-04-24T08:12:19;2.97;;;1.38;;
75285;SDS011;63879;46.064;14.532;2023-04-24T08:14:45;3.05;;;1.85;;
75285;SDS011;63879;46.064;14.532;2023-04-24T08:17:10;3.08;;;1.67;;
75285;SDS011;63879;46.064;14.532;2023-04-24T08:19:36;2.08;;;1.38;;
75285;SDS011;63879;46.064;14.532;2023-04-24T08:22:01;3.45;;;1.85;;
75285;SDS011;63879;46.064;14.532;2023-04-24T08:24:27;3.38;;;2.17;;
75285;SDS011;63879;46.064;14.532;2023-04-24T08:26:52;3.60;;;1.73;;
75285;SDS011;63879;46.064;14.532;2023-04-24T08:29:19;1.88;;;0.88;;
75285;SDS011;63879;46.064;14.532;2023-04-24T08:31:44;2.03;;;1.40;;
75285;SDS011;63879;46.064;14.532;2023-04-24T08:34:10;1.40;;;1.07;;
75285;SDS011;63879;46.064;14.532;2023-04-24T08:36:35;3.85;;;2.10;;
75285;SDS011;63879;46.064;14.532;2023-04-24T08:39:01;1.67;;;1.25;;
75285;SDS011;63879;46.064;14.532;2023-04-24T08:41:26;3.42;;;2.42;;
75285;SDS011;63879;46.064;14.532;2023-04-24T08:43:52;3.72;;;1.45;;
75285;SDS011;63879;46.064;14.532;2023-04-24T08:46:18;3.63;;;2.10;;
75285;SDS011;63879;46.064;14.532;2023-04-24T08:48:45;4.93;;;2.40;;
75285;SDS011;63879;46.064;14.532;2023-04-24T08:51:10;4.32;;;2.47;;
75285;SDS011;63879;46.064;14.532;2023-04-24T08:53:36;3.85;;;2.05;;
75285;SDS011;63879;46.064;14.532;2023-04-24T08:56:02;4.10;;;2.28;;
75285;SDS011;63879;46.064;14.532;2023-04-24T08:58:28;4.07;;;2.50;;
75285;SDS011;63879;46.064;14.532;2023-04-24T09:00:57;2.60;;;2.00;;
75285;SDS011;63879;46.064;14.532;2023-04-24T09:03:23;5.65;;;2.47;;
75285;SDS011;63879;46.064;14.532;2023-04-24T09:05:49;4.25;;;2.03;;
75285;SDS011;63879;46.064;14.532;2023-04-24T09:08:18;4.40;;;1.75;;
75285;SDS011;63879;46.064;14.532;2023-04-24T09:10:44;2.67;;;2.05;;
75285;SDS011;63879;46.064;14.532;2023-04-24T09:13:10;5.72;;;2.45;;
75285;SDS011;63879;46.064;14.532;2023-04-24T09:15:36;2.97;;;1.75;;
75285;SDS011;63879;46.064;14.532;2023-04-24T09:18:02;4.03;;;2.10;;
75285;SDS011;63879;46.064;14.532;2023-04-24T09:20:28;4.28;;;2.03;;
75285;SDS011;63879;46.064;14.532;2023-04-24T09:22:54;2.83;;;1.33;;
75285;SDS011;63879;46.064;14.532;2023-04-24T09:25:20;3.17;;;1.42;;
75285;SDS011;63879;46.064;14.532;2023-04-24T09:27:46;3.33;;;1.88;;
75285;SDS011;63879;46.064;14.532;2023-04-24T09:30:12;3.33;;;2.10;;
75285;SDS011;63879;46.064;14.532;2023-04-24T09:32:38;3.65;;;2.17;;
75285;SDS011;63879;46.064;14.532;2023-04-24T09:35:13;5.90;;;1.88;;
75285;SDS011;63879;46.064;14.532;2023-04-24T09:37:43;6.82;;;2.25;;
75285;SDS011;63879;46.064;14.532;2023-04-24T09:40:17;5.57;;;2.40;;
75285;SDS011;63879;46.064;14.532;2023-04-24T09:42:44;5.15;;;1.88;;
75285;SDS011;63879;46.064;14.532;2023-04-24T09:45:18;4.10;;;2.28;;
75285;SDS011;63879;46.064;14.532;2023-04-24T09:47:45;3.65;;;1.98;;
75285;SDS011;63879;46.064;14.532;2023-04-24T09:50:11;3.88;;;2.28;;
75285;SDS011;63879;46.064;14.532;2023-04-24T09:52:41;4.60;;;2.47;;
75285;SDS011;63879;46.064;14.532;2023-04-24T09:55:30;3.03;;;1.88;;
75285;SDS011;63879;46.064;14.532;2023-04-24T09:57:57;4.00;;;2.25;;
75285;SDS011;63879;46.064;14.532;2023-04-24T10:00:26;3.67;;;2.22;;
75285;SDS011;63879;46.064;14.532;2023-04-24T10:05:29;5.38;;;2.80;;
75285;SDS011;63879;46.064;14.532;2023-04-24T10:07:56;5.13;;;2.78;;
75285;SDS011;63879;46.064;14.532;2023-04-24T10:10:26;3.15;;;1.73;;
75285;SDS011;63879;46.064;14.532;2023-04-24T10:12:51;4.15;;;1.98;;
75285;SDS011;63879;46.064;14.532;2023-04-24T10:15:18;5.78;;;1.88;;
75285;SDS011;63879;46.064;14.532;2023-04-24T10:17:46;4.13;;;1.90;;
75285;SDS011;63879;46.064;14.532;2023-04-24T10:20:17;3.40;;;1.90;;
75285;SDS011;63879;46.064;14.532;2023-04-24T10:22:54;4.50;;;2.13;;
75285;SDS011;63879;46.064;14.532;2023-04-24T10:25:21;7.10;;;1.88;;
75285;SDS011;63879;46.064;14.532;2023-04-24T10:27:48;3.50;;;1.75;;
75285;SDS011;63879;46.064;14.532;2023-04-24T10:30:15;4.50;;;1.75;;
75285;SDS011;63879;46.064;14.532;2023-04-24T10:32:41;1.42;;;1.33;;
75285;SDS011;63879;46.064;14.532;2023-04-24T10:35:06;3.27;;;1.60;;
75285;SDS011;63879;46.064;14.532;2023-04-24T10:37:46;3.05;;;2.03;;
75285;SDS011;63879;46.064;14.532;2023-04-24T10:40:17;3.13;;;1.65;;
75285;SDS011;63879;46.064;14.532;2023-04-24T10:42:46;5.55;;;1.88;;
75285;SDS011;63879;46.064;14.532;2023-04-24T10:45:20;2.95;;;1.88;;
75285;SDS011;63879;46.064;14.532;2023-04-24T10:50:19;2.28;;;1.27;;
75285;SDS011;63879;46.064;14.532;2023-04-24T10:52:45;2.63;;;1.05;;
75285;SDS011;63879;46.064;14.532;2023-04-24T10:55:12;6.63;;;1.98;;
75285;SDS011;63879;46.064;14.532;2023-04-24T10:57:39;2.53;;;1.35;;
75285;SDS011;63879;46.064;14.532;2023-04-24T11:00:20;2.80;;;1.33;;
75285;SDS011;63879;46.064;14.532;2023-04-24T11:02:46;2.92;;;1.88;;
75285;SDS011;63879;46.064;14.532;2023-04-24T11:05:18;1.92;;;1.35;;
75285;SDS011;63879;46.064;14.532;2023-04-24T11:10:39;1.15;;;0.70;;
75285;SDS011;63879;46.064;14.532;2023-04-24T11:13:06;1.13;;;0.90;;
75285;SDS011;63879;46.064;14.532;2023-04-24T11:15:31;1.40;;;0.85;;
75285;SDS011;63879;46.064;14.532;2023-04-24T11:17:56;1.57;;;1.00;;
75285;SDS011;63879;46.064;14.532;2023-04-24T11:20:22;0.77;;;0.68;;
75285;SDS011;63879;46.064;14.532;2023-04-24T11:22:48;1.85;;;1.17;;
75285;SDS011;63879;46.064;14.532;2023-04-24T11:25:17;1.70;;;1.13;;
75285;SDS011;63879;46.064;14.532;2023-04-24T11:27:43;1.60;;;1.20;;
75285;SDS011;63879;46.064;14.532;2023-04-24T11:30:11;3.00;;;0.88;;
75285;SDS011;63879;46.064;14.532;2023-04-24T11:32:37;2.38;;;1.05;;
75285;SDS011;63879;46.064;14.532;2023-04-24T11:37:44;1.50;;;0.77;;
75285;SDS011;63879;46.064;14.532;2023-04-24T11:40:12;3.40;;;0.98;;
75285;SDS011;63879;46.064;14.532;2023-04-24T11:42:40;1.60;;;0.82;;
75285;SDS011;63879;46.064;14.532;2023-04-24T11:45:28;1.80;;;0.77;;
75285;SDS011;63879;46.064;14.532;2023-04-24T11:47:52;0.90;;;0.75;;
75285;SDS011;63879;46.064;14.532;2023-04-24T11:50:19;1.52;;;0.90;;
75285;SDS011;63879;46.064;14.532;2023-04-24T11:52:46;2.03;;;1.58;;
75285;SDS011;63879;46.064;14.532;2023-04-24T11:57:50;1.58;;;0.80;;
75285;SDS011;63879;46.064;14.532;2023-04-24T12:00:19;1.85;;;1.17;;
75285;SDS011;63879;46.064;14.532;2023-04-24T12:05:25;0.80;;;0.70;;
75285;SDS011;63879;46.064;14.532;2023-04-24T12:07:52;5.72;;;1.80;;
75285;SDS011;63879;46.064;14.532;2023-04-24T12:10:21;1.30;;;0.80;;
75285;SDS011;63879;46.064;14.532;2023-04-24T12:12:51;2.58;;;1.17;;
75285;SDS011;63879;46.064;14.532;2023-04-24T12:15:17;1.90;;;1.38;;
75285;SDS011;63879;46.064;14.532;2023-04-24T12:17:44;2.17;;;0.95;;
75285;SDS011;63879;46.064;14.532;2023-04-24T12:20:10;2.83;;;0.90;;
75285;SDS011;63879;46.064;14.532;2023-04-24T12:22:46;2.00;;;0.98;;
75285;SDS011;63879;46.064;14.532;2023-04-24T12:25:17;2.55;;;1.13;;
75285;SDS011;63879;46.064;14.532;2023-04-24T12:27:43;3.72;;;1.88;;
75285;SDS011;63879;46.064;14.532;2023-04-24T12:30:10;1.40;;;1.00;;
75285;SDS011;63879;46.064;14.532;2023-04-24T12:32:45;1.25;;;1.05;;
75285;SDS011;63879;46.064;14.532;2023-04-24T12:35:11;2.50;;;1.42;;
75285;SDS011;63879;46.064;14.532;2023-04-24T12:37:37;1.95;;;1.38;;
75285;SDS011;63879;46.064;14.532;2023-04-24T12:42:41;5.05;;;1.60;;
75285;SDS011;63879;46.064;14.532;2023-04-24T12:45:16;2.70;;;1.27;;
75285;SDS011;63879;46.064;14.532;2023-04-24T12:47:43;2.78;;;1.77;;
75285;SDS011;63879;46.064;14.532;2023-04-24T12:50:11;2.38;;;1.67;;
75285;SDS011;63879;46.064;14.532;2023-04-24T12:52:37;3.60;;;2.08;;
75285;SDS011;63879;46.064;14.532;2023-04-24T12:55:04;3.40;;;1.65;;
75285;SDS011;63879;46.064;14.532;2023-04-24T12:59:57;3.57;;;2.03;;
75285;SDS011;63879;46.064;14.532;2023-04-24T13:02:24;2.60;;;1.17;;
75285;SDS011;63879;46.064;14.532;2023-04-24T13:04:50;1.58;;;0.93;;
75285;SDS011;63879;46.064;14.532;2023-04-24T13:07:16;3.67;;;1.35;;
75285;SDS011;63879;46.064;14.532;2023-04-24T13:09:42;2.05;;;1.00;;
75285;SDS011;63879;46.064;14.532;2023-04-24T13:12:09;3.58;;;1.17;;
75285;SDS011;63879;46.064;14.532;2023-04-24T13:14:35;1.95;;;1.08;;
75285;SDS011;63879;46.064;14.532;2023-04-24T13:17:00;2.40;;;0.98;;
75285;SDS011;63879;46.064;14.532;2023-04-24T13:19:26;0.50;;;0.33;;
75285;SDS011;63879;46.064;14.532;2023-04-24T13:21:52;1.08;;;0.75;;
75285;SDS011;63879;46.064;14.532;2023-04-24T13:24:18;0.52;;;0.45;;
75285;SDS011;63879;46.064;14.532;2023-04-24T13:26:43;1.20;;;0.60;;
75285;SDS011;63879;46.064;14.532;2023-04-24T13:29:09;0.45;;;0.35;;
75285;SDS011;63879;46.064;14.532;2023-04-24T13:31:34;1.08;;;0.60;;
75285;SDS011;63879;46.064;14.532;2023-04-24T13:34:00;2.00;;;0.20;;
75285;SDS011;63879;46.064;14.532;2023-04-24T13:36:26;0.73;;;0.63;;
75285;SDS011;63879;46.064;14.532;2023-04-24T13:38:51;2.63;;;0.50;;
75285;SDS011;63879;46.064;14.532;2023-04-24T13:41:17;0.70;;;0.30;;
75285;SDS011;63879;46.064;14.532;2023-04-24T13:43:42;0.67;;;0.30;;
75285;SDS011;63879;46.064;14.532;2023-04-24T13:46:08;0.85;;;0.55;;
75285;SDS011;63879;46.064;14.532;2023-04-24T13:48:33;0.88;;;0.40;;
75285;SDS011;63879;46.064;14.532;2023-04-24T13:50:59;0.47;;;0.22;;
75285;SDS011;63879;46.064;14.532;2023-04-24T13:53:24;0.97;;;0.40;;
75285;SDS011;63879;46.064;14.532;2023-04-24T13:55:49;3.93;;;0.60;;
75285;SDS011;63879;46.064;14.532;2023-04-24T13:58:15;0.70;;;0.50;;
75285;SDS011;63879;46.064;14.532;2023-04-24T14:00:40;1.77;;;0.55;;
75285;SDS011;63879;46.064;14.532;2023-04-24T14:03:06;1.63;;;0.33;;
75285;SDS011;63879;46.064;14.532;2023-04-24T14:05:31;0.60;;;0.35;;
75285;SDS011;63879;46.064;14.532;2023-04-24T14:07:56;1.30;;;0.70;;
75285;SDS011;63879;46.064;14.532;2023-04-24T14:10:22;0.65;;;0.65;;
75285;SDS011;63879;46.064;14.532;2023-04-24T14:12:47;1.00;;;0.43;;
75285;SDS011;63879;46.064;14.532;2023-04-24T14:15:13;1.10;;;0.50;;
75285;SDS011;63879;46.064;14.532;2023-04-24T14:17:38;0.80;;;0.50;;
75285;SDS011;63879;46.064;14.532;2023-04-24T14:20:04;3.83;;;1.17;;
75285;SDS011;63879;46.064;14.532;2023-04-24T14:22:31;0.73;;;0.40;;
75285;SDS011;63879;46.064;14.532;2023-04-24T14:24:57;0.60;;;0.43;;
75285;SDS011;63879;46.064;14.532;2023-04-24T14:27:22;1.80;;;0.77;;
75285;SDS011;63879;46.064;14.532;2023-04-24T14:29:49;2.63;;;0.85;;
75285;SDS011;63879;46.064;14.532;2023-04-24T14:32:14;2.05;;;0.65;;
75285;SDS011;63879;46.064;14.532;2023-04-24T14:34:40;3.87;;;1.73;;
75285;SDS011;63879;46.064;14.532;2023-04-24T14:37:05;2.97;;;1.02;;
75285;SDS011;63879;46.064;14.532;2023-04-24T14:39:31;2.20;;;0.50;;
75285;SDS011;63879;46.064;14.532;2023-04-24T14:41:56;4.47;;;0.73;;
75285;SDS011;63879;46.064;14.532;2023-04-24T14:44:22;1.20;;;0.55;;
75285;SDS011;63879;46.064;14.532;2023-04-24T14:46:48;0.98;;;0.47;;
75285;SDS011;63879;46.064;14.532;2023-04-24T14:49:13;1.58;;;0.70;;
75285;SDS011;63879;46.064;14.532;2023-04-24T14:51:39;1.13;;;0.52;;
75285;SDS011;63879;46.064;14.532;2023-04-24T14:54:05;0.63;;;0.32;;
75285;SDS011;63879;46.064;14.532;2023-04-24T14:56:31;3.92;;;2.78;;
75285;SDS011;63879;46.064;14.532;2023-04-24T14:58:56;2.00;;;0.93;;
75285;SDS011;63879;46.064;14.532;2023-04-24T15:01:22;1.58;;;0.80;;
75285;SDS011;63879;46.064;14.532;2023-04-24T15:03:48;1.55;;;1.08;;
75285;SDS011;63879;46.064;14.532;2023-04-24T15:06:14;1.10;;;0.63;;
75285;SDS011;63879;46.064;14.532;2023-04-24T15:08:39;1.13;;;0.60;;
75285;SDS011;63879;46.064;14.532;2023-04-24T15:11:05;1.48;;;0.50;;
75285;SDS011;63879;46.064;14.532;2023-04-24T15:13:30;0.75;;;0.35;;
75285;SDS011;63879;46.064;14.532;2023-04-24T15:15:56;1.70;;;0.73;;
75285;SDS011;63879;46.064;14.532;2023-04-24T15:18:21;2.75;;;0.55;;
75285;SDS011;63879;46.064;14.532;2023-04-24T15:20:47;1.70;;;0.82;;
75285;SDS011;63879;46.064;14.532;2023-04-24T15:23:12;0.80;;;0.30;;
75285;SDS011;63879;46.064;14.532;2023-04-24T15:25:38;1.10;;;0.70;;
75285;SDS011;63879;46.064;14.532;2023-04-24T15:28:03;0.75;;;0.30;;
75285;SDS011;63879;46.064;14.532;2023-04-24T15:30:30;0.85;;;0.47;;
75285;SDS011;63879;46.064;14.532;2023-04-24T15:32:56;0.75;;;0.40;;
75285;SDS011;63879;46.064;14.532;2023-04-24T15:35:21;0.63;;;0.35;;
75285;SDS011;63879;46.064;14.532;2023-04-24T15:37:46;0.98;;;0.60;;
75285;SDS011;63879;46.064;14.532;2023-04-24T15:40:12;0.90;;;0.32;;
75285;SDS011;63879;46.064;14.532;2023-04-24T15:42:40;1.20;;;0.75;;
75285;SDS011;63879;46.064;14.532;2023-04-24T15:45:07;1.27;;;0.52;;
75285;SDS011;63879;46.064;14.532;2023-04-24T15:47:32;0.75;;;0.40;;
75285;SDS011;63879;46.064;14.532;2023-04-24T15:49:58;1.27;;;0.60;;
75285;SDS011;63879;46.064;14.532;2023-04-24T15:52:23;2.47;;;0.80;;
75285;SDS011;63879;46.064;14.532;2023-04-24T15:54:49;3.25;;;1.00;;
75285;SDS011;63879;46.064;14.532;2023-04-24T15:57:14;2.53;;;0.63;;
75285;SDS011;63879;46.064;14.532;2023-04-24T15:59:40;1.77;;;0.65;;
75285;SDS011;63879;46.064;14.532;2023-04-24T16:02:06;0.80;;;0.60;;
75285;SDS011;63879;46.064;14.532;2023-04-24T16:04:33;0.68;;;0.45;;
75285;SDS011;63879;46.064;14.532;2023-04-24T16:06:59;1.85;;;0.70;;
75285;SDS011;63879;46.064;14.532;2023-04-24T16:09:25;0.90;;;0.80;;
75285;SDS011;63879;46.064;14.532;2023-04-24T16:11:50;1.60;;;0.77;;
75285;SDS011;63879;46.064;14.532;2023-04-24T16:14:16;0.97;;;0.70;;
75285;SDS011;63879;46.064;14.532;2023-04-24T16:16:41;2.38;;;1.40;;
75285;SDS011;63879;46.064;14.532;2023-04-24T16:19:07;1.03;;;0.93;;
75285;SDS011;63879;46.064;14.532;2023-04-24T16:21:32;1.90;;;1.38;;
75285;SDS011;63879;46.064;14.532;2023-04-24T16:23:58;1.83;;;0.63;;
75285;SDS011;63879;46.064;14.532;2023-04-24T16:26:23;1.43;;;0.70;;
75285;SDS011;63879;46.064;14.532;2023-04-24T16:28:48;1.90;;;0.70;;
75285;SDS011;63879;46.064;14.532;2023-04-24T16:31:14;0.68;;;0.50;;
75285;SDS011;63879;46.064;14.532;2023-04-24T16:33:39;2.20;;;0.75;;
75285;SDS011;63879;46.064;14.532;2023-04-24T16:36:04;2.88;;;0.70;;
75285;SDS011;63879;46.064;14.532;2023-04-24T16:38:30;0.88;;;0.50;;
75285;SDS011;63879;46.064;14.532;2023-04-24T16:40:55;1.02;;;0.50;;
75285;SDS011;63879;46.064;14.532;2023-04-24T16:43:21;0.73;;;0.23;;
75285;SDS011;63879;46.064;14.532;2023-04-24T16:45:46;2.55;;;0.82;;
75285;SDS011;63879;46.064;14.532;2023-04-24T16:48:11;1.20;;;0.30;;
75285;SDS011;63879;46.064;14.532;2023-04-24T16:50:37;1.50;;;0.40;;
75285;SDS011;63879;46.064;14.532;2023-04-24T16:53:02;0.85;;;0.57;;
75285;SDS011;63879;46.064;14.532;2023-04-24T16:55:28;0.98;;;0.40;;
75285;SDS011;63879;46.064;14.532;2023-04-24T16:57:53;0.22;;;0.17;;
75285;SDS011;63879;46.064;14.532;2023-04-24T17:00:19;4.00;;;0.43;;
75285;SDS011;63879;46.064;14.532;2023-04-24T17:02:44;0.38;;;0.25;;
75285;SDS011;63879;46.064;14.532;2023-04-24T17:05:12;0.93;;;0.45;;
75285;SDS011;63879;46.064;14.532;2023-04-24T17:07:39;0.73;;;0.50;;
75285;SDS011;63879;46.064;14.532;2023-04-24T17:10:05;0.73;;;0.57;;
75285;SDS011;63879;46.064;14.532;2023-04-24T17:12:32;0.32;;;0.20;;
75285;SDS011;63879;46.064;14.532;2023-04-24T17:14:58;0.75;;;0.40;;
75285;SDS011;63879;46.064;14.532;2023-04-24T17:17:23;2.80;;;0.60;;
75285;SDS011;63879;46.064;14.532;2023-04-24T17:19:49;0.80;;;0.52;;
75285;SDS011;63879;46.064;14.532;2023-04-24T17:22:15;0.88;;;0.35;;
75285;SDS011;63879;46.064;14.532;2023-04-24T17:24:41;0.80;;;0.40;;
75285;SDS011;63879;46.064;14.532;2023-04-24T17:27:06;0.70;;;0.22;;
75285;SDS011;63879;46.064;14.532;2023-04-24T17:29:31;0.73;;;0.60;;
75285;SDS011;63879;46.064;14.532;2023-04-24T17:31:57;0.28;;;0.28;;
75285;SDS011;63879;46.064;14.532;2023-04-24T17:34:22;0.17;;;0.10;;
75285;SDS011;63879;46.064;14.532;2023-04-24T17:36:48;1.95;;;0.82;;
75285;SDS011;63879;46.064;14.532;2023-04-24T17:39:13;1.23;;;0.30;;
75285;SDS011;63879;46.064;14.532;2023-04-24T17:41:38;0.60;;;0.30;;
75285;SDS011;63879;46.064;14.532;2023-04-24T17:44:04;2.58;;;0.85;;
75285;SDS011;63879;46.064;14.532;2023-04-24T17:46:29;1.52;;;0.38;;
75285;SDS011;63879;46.064;14.532;2023-04-24T17:48:55;1.65;;;0.70;;
75285;SDS011;63879;46.064;14.532;2023-04-24T17:51:20;0.77;;;0.57;;
75285;SDS011;63879;46.064;14.532;2023-04-24T17:53:45;0.90;;;0.40;;
75285;SDS011;63879;46.064;14.532;2023-04-24T17:56:12;1.15;;;0.35;;
75285;SDS011;63879;46.064;14.532;2023-04-24T17:58:38;0.40;;;0.40;;
75285;SDS011;63879;46.064;14.532;2023-04-24T18:01:03;1.33;;;0.55;;
75285;SDS011;63879;46.064;14.532;2023-04-24T18:03:29;0.57;;;0.32;;
75285;SDS011;63879;46.064;14.532;2023-04-24T18:05:54;0.73;;;0.73;;
75285;SDS011;63879;46.064;14.532;2023-04-24T18:08:20;2.15;;;0.80;;
75285;SDS011;63879;46.064;14.532;2023-04-24T18:10:45;1.80;;;0.93;;
75285;SDS011;63879;46.064;14.532;2023-04-24T18:13:11;1.27;;;0.60;;
75285;SDS011;63879;46.064;14.532;2023-04-24T18:15:36;3.13;;;0.75;;
75285;SDS011;63879;46.064;14.532;2023-04-24T18:18:05;4.10;;;0.73;;
75285;SDS011;63879;46.064;14.532;2023-04-24T18:20:31;1.00;;;0.45;;
75285;SDS011;63879;46.064;14.532;2023-04-24T18:22:56;1.20;;;0.70;;
75285;SDS011;63879;46.064;14.532;2023-04-24T18:25:22;0.80;;;0.60;;
75285;SDS011;63879;46.064;14.532;2023-04-24T18:27:50;1.55;;;0.90;;
75285;SDS011;63879;46.064;14.532;2023-04-24T18:30:16;1.67;;;0.52;;
75285;SDS011;63879;46.064;14.532;2023-04-24T18:32:42;1.45;;;0.68;;
75285;SDS011;63879;46.064;14.532;2023-04-24T18:35:07;3.67;;;0.75;;
75285;SDS011;63879;46.064;14.532;2023-04-24T18:37:33;1.92;;;1.20;;
75285;SDS011;63879;46.064;14.532;2023-04-24T18:39:58;1.60;;;0.90;;
75285;SDS011;63879;46.064;14.532;2023-04-24T18:42:24;1.67;;;0.90;;
75285;SDS011;63879;46.064;14.532;2023-04-24T18:44:49;1.20;;;0.73;;
75285;SDS011;63879;46.064;14.532;2023-04-24T18:47:15;1.17;;;0.55;;
75285;SDS011;63879;46.064;14.532;2023-04-24T18:49:41;1.73;;;0.87;;
75285;SDS011;63879;46.064;14.532;2023-04-24T18:52:06;2.03;;;0.95;;
75285;SDS011;63879;46.064;14.532;2023-04-24T18:54:31;2.28;;;0.98;;
75285;SDS011;63879;46.064;14.532;2023-04-24T18:56:57;2.85;;;1.15;;
75285;SDS011;63879;46.064;14.532;2023-04-24T18:59:22;2.67;;;1.25;;
75285;SDS011;63879;46.064;14.532;2023-04-24T19:01:48;2.28;;;1.02;;
75285;SDS011;63879;46.064;14.532;2023-04-24T19:04:13;8.03;;;1.47;;
75285;SDS011;63879;46.064;14.532;2023-04-24T19:06:39;3.15;;;1.55;;
75285;SDS011;63879;46.064;14.532;2023-04-24T19:09:05;3.13;;;1.45;;
75285;SDS011;63879;46.064;14.532;2023-04-24T19:11:30;3.20;;;1.90;;
75285;SDS011;63879;46.064;14.532;2023-04-24T19:13:56;3.70;;;1.42;;
75285;SDS011;63879;46.064;14.532;2023-04-24T19:16:24;2.67;;;1.58;;
75285;SDS011;63879;46.064;14.532;2023-04-24T19:18:49;3.50;;;2.33;;
75285;SDS011;63879;46.064;14.532;2023-04-24T19:21:15;2.67;;;1.45;;
75285;SDS011;63879;46.064;14.532;2023-04-24T19:23:41;3.90;;;1.75;;
75285;SDS011;63879;46.064;14.532;2023-04-24T19:26:07;2.42;;;1.80;;
75285;SDS011;63879;46.064;14.532;2023-04-24T19:28:32;3.25;;;1.63;;
75285;SDS011;63879;46.064;14.532;2023-04-24T19:30:58;4.17;;;1.80;;
75285;SDS011;63879;46.064;14.532;2023-04-24T19:33:24;3.47;;;1.73;;
75285;SDS011;63879;46.064;14.532;2023-04-24T19:35:49;3.92;;;2.58;;
75285;SDS011;63879;46.064;14.532;2023-04-24T19:38:15;4.80;;;2.67;;
75285;SDS011;63879;46.064;14.532;2023-04-24T19:40:40;5.90;;;2.92;;
75285;SDS011;63879;46.064;14.532;2023-04-24T19:43:06;5.15;;;3.15;;
75285;SDS011;63879;46.064;14.532;2023-04-24T19:45:31;4.37;;;2.73;;
75285;SDS011;63879;46.064;14.532;2023-04-24T19:47:57;4.53;;;2.45;;
75285;SDS011;63879;46.064;14.532;2023-04-24T19:50:23;4.70;;;2.03;;
75285;SDS011;63879;46.064;14.532;2023-04-24T19:52:49;3.27;;;2.03;;
75285;SDS011;63879;46.064;14.532;2023-04-24T19:55:14;3.28;;;1.88;;
75285;SDS011;63879;46.064;14.532;2023-04-24T19:57:39;3.88;;;1.50;;
75285;SDS011;63879;46.064;14.532;2023-04-24T20:00:05;3.60;;;1.70;;
75285;SDS011;63879;46.064;14.532;2023-04-24T20:02:32;3.47;;;1.80;;
75285;SDS011;63879;46.064;14.532;2023-04-24T20:04:57;3.03;;;1.97;;
75285;SDS011;63879;46.064;14.532;2023-04-24T20:07:22;3.30;;;1.67;;
75285;SDS011;63879;46.064;14.532;2023-04-24T20:09:48;3.00;;;1.48;;
75285;SDS011;63879;46.064;14.532;2023-04-24T20:12:13;3.83;;;1.40;;
75285;SDS011;63879;46.064;14.532;2023-04-24T20:14:38;2.17;;;1.10;;
75285;SDS011;63879;46.064;14.532;2023-04-24T20:17:04;2.22;;;1.10;;
75285;SDS011;63879;46.064;14.532;2023-04-24T20:19:30;2.20;;;1.13;;
75285;SDS011;63879;46.064;14.532;2023-04-24T20:21:55;3.65;;;2.05;;
75285;SDS011;63879;46.064;14.532;2023-04-24T20:24:23;5.60;;;2.03;;
75285;SDS011;63879;46.064;14.532;2023-04-24T20:26:49;3.05;;;1.30;;
75285;SDS011;63879;46.064;14.532;2023-04-24T20:29:14;3.13;;;2.03;;
75285;SDS011;63879;46.064;14.532;2023-04-24T20:31:42;4.25;;;2.10;;
75285;SDS011;63879;46.064;14.532;2023-04-24T20:34:08;2.63;;;1.53;;
75285;SDS011;63879;46.064;14.532;2023-04-24T20:36:33;4.33;;;2.23;;
75285;SDS011;63879;46.064;14.532;2023-04-24T20:38:59;2.95;;;1.73;;
75285;SDS011;63879;46.064;14.532;2023-04-24T20:41:25;3.92;;;2.10;;
75285;SDS011;63879;46.064;14.532;2023-04-24T20:43:51;3.28;;;1.88;;
75285;SDS011;63879;46.064;14.532;2023-04-24T20:46:16;3.92;;;2.10;;
75285;SDS011;63879;46.064;14.532;2023-04-24T20:48:42;3.65;;;1.60;;
75285;SDS011;63879;46.064;14.532;2023-04-24T20:51:07;2.83;;;1.63;;